Terminal Aerodrome Forecast
Issued by NWS Wilmington, NC

Home | Current Version | Previous Version | Text Only | Print | Product List | Glossary On
Versions: 1 2 3 4 5 6 7 8 9 10 11 12 13
000
FTUS42 KILM 072324
TAFMYR
TAF
KMYR 072324Z 0800/0824 19012G18KT P6SM FEW015 SCT120
     FM080500 21007KT P6SM FEW040 FEW200
     FM081500 21015G23KT P6SM FEW050
      AMD LTD TO CLD VIS AND WIND 0804/0811=

USA.gov is the U.S. government's official web portal to all federal, state and local government web resources and services.